createdAt,value
2023-12-27T00:01:07.655Z,6.50
2023-12-27T00:03:49.613Z,5.70
2023-12-27T00:06:19.826Z,4.80
2023-12-27T00:08:48.613Z,4.00
2023-12-27T00:11:19.241Z,3.90
2023-12-27T00:13:47.944Z,4.50
2023-12-27T00:16:16.241Z,4.40
2023-12-27T00:18:44.696Z,4.50
2023-12-27T00:21:14.695Z,4.20
2023-12-27T00:23:43.204Z,4.70
2023-12-27T00:26:11.937Z,4.00
2023-12-27T00:28:41.317Z,4.10
2023-12-27T00:31:09.848Z,4.60
2023-12-27T00:33:38.738Z,4.00
2023-12-27T00:36:09.251Z,4.40
2023-12-27T00:38:39.296Z,4.20
2023-12-27T00:41:08.717Z,4.40
2023-12-27T00:43:37.011Z,4.20
2023-12-27T00:46:07.790Z,3.60
2023-12-27T00:48:36.880Z,4.30
2023-12-27T00:51:06.911Z,4.30
2023-12-27T00:53:35.297Z,3.90
2023-12-27T00:56:03.637Z,4.70
2023-12-27T00:58:32.077Z,4.80
2023-12-27T01:01:00.464Z,4.40
2023-12-27T01:03:29.068Z,4.40
2023-12-27T01:05:57.833Z,4.20
2023-12-27T01:08:26.601Z,5.10
2023-12-27T01:10:55.231Z,4.90
2023-12-27T01:13:23.557Z,4.60
2023-12-27T01:15:52.002Z,4.80
2023-12-27T01:18:21.005Z,4.40
2023-12-27T01:20:50.330Z,4.40
2023-12-27T01:23:18.716Z,5.70
2023-12-27T01:25:47.093Z,5.80
2023-12-27T01:28:15.984Z,6.40
2023-12-27T01:30:44.589Z,5.30
2023-12-27T01:33:13.580Z,5.20
2023-12-27T01:35:42.049Z,5.30
2023-12-27T01:38:10.363Z,5.40
2023-12-27T01:40:38.697Z,5.70
2023-12-27T01:43:07.146Z,4.80
2023-12-27T01:45:35.579Z,5.40
2023-12-27T01:48:05.245Z,5.50
2023-12-27T01:50:33.980Z,5.80
2023-12-27T01:53:03.682Z,6.10
2023-12-27T01:55:33.610Z,5.40
2023-12-27T01:58:03.300Z,5.30
2023-12-27T02:00:31.859Z,7.00
2023-12-27T02:03:00.552Z,5.60
2023-12-27T02:05:29.309Z,5.20
2023-12-27T02:07:58.550Z,6.30
2023-12-27T02:10:28.680Z,6.60
2023-12-27T02:12:57.050Z,5.80
2023-12-27T02:15:25.490Z,7.20
2023-12-27T02:17:54.272Z,8.80
2023-12-27T02:20:23.782Z,8.60
2023-12-27T02:22:54.560Z,7.70
2023-12-27T02:25:23.663Z,5.90
2023-12-27T02:27:52.032Z,6.40
2023-12-27T02:30:22.765Z,6.70
2023-12-27T02:32:52.903Z,7.70
2023-12-27T02:35:21.792Z,7.00
2023-12-27T02:37:50.301Z,7.80
2023-12-27T02:40:18.863Z,6.90
2023-12-27T02:42:48.243Z,6.50
2023-12-27T02:45:16.890Z,6.20
2023-12-27T02:47:45.928Z,7.90
2023-12-27T02:50:14.721Z,7.40
2023-12-27T02:52:43.211Z,7.00
2023-12-27T02:55:11.892Z,7.30
2023-12-27T02:57:40.457Z,7.20
2023-12-27T03:00:10.100Z,7.40
2023-12-27T03:02:38.583Z,8.20
2023-12-27T03:05:07.567Z,8.00
2023-12-27T03:07:35.879Z,7.50
2023-12-27T03:10:05.274Z,7.90
2023-12-27T03:12:34.333Z,7.70
2023-12-27T03:15:02.806Z,8.00
2023-12-27T03:17:31.501Z,8.00
2023-12-27T03:20:00.085Z,7.80
2023-12-27T03:22:29.195Z,6.90
2023-12-27T03:24:57.746Z,7.90
2023-12-27T03:27:26.164Z,7.30
2023-12-27T03:29:54.886Z,8.20
2023-12-27T03:32:25.885Z,7.80
2023-12-27T03:34:54.238Z,7.50
2023-12-27T03:37:22.633Z,7.70
2023-12-27T03:39:52.837Z,8.80
2023-12-27T03:42:21.480Z,10.70
2023-12-27T03:44:54.610Z,8.90
2023-12-27T03:47:24.351Z,7.80
2023-12-27T03:49:52.839Z,9.60
2023-12-27T03:52:21.462Z,8.50
2023-12-27T03:54:50.685Z,8.00
2023-12-27T03:57:19.112Z,7.30
2023-12-27T03:59:47.590Z,7.20
2023-12-27T04:02:17.149Z,7.90
2023-12-27T04:04:48.253Z,7.20
2023-12-27T04:07:16.777Z,7.40
2023-12-27T04:09:45.459Z,8.20
2023-12-27T04:12:13.928Z,8.40
2023-12-27T04:14:42.177Z,7.70
2023-12-27T04:17:10.490Z,8.10
2023-12-27T04:19:38.920Z,9.80
2023-12-27T04:22:09.746Z,8.70
2023-12-27T04:24:38.207Z,9.40
2023-12-27T04:27:06.797Z,9.50
2023-12-27T04:29:35.253Z,8.90
2023-12-27T04:32:03.837Z,8.90
2023-12-27T04:34:32.160Z,11.30
2023-12-27T04:37:02.042Z,11.10
2023-12-27T04:39:30.739Z,9.90
2023-12-27T04:41:59.232Z,13.80
2023-12-27T04:44:27.780Z,10.60
2023-12-27T04:46:58.012Z,9.30
2023-12-27T04:49:26.602Z,8.40
2023-12-27T04:51:55.178Z,9.00
2023-12-27T04:54:24.716Z,7.90
2023-12-27T04:56:56.597Z,8.00
2023-12-27T04:59:25.342Z,10.00
2023-12-27T05:01:54.639Z,9.20
2023-12-27T05:04:24.729Z,8.80
2023-12-27T05:06:53.336Z,9.60
2023-12-27T05:09:21.841Z,9.80
2023-12-27T05:11:50.931Z,8.30
2023-12-27T05:14:19.096Z,8.30
2023-12-27T05:16:48.183Z,7.10
2023-12-27T05:19:18.194Z,6.40
2023-12-27T05:24:16.405Z,8.20
2023-12-27T05:26:45.175Z,7.20
2023-12-27T05:29:13.754Z,8.60
2023-12-27T05:31:42.146Z,10.70
2023-12-27T05:34:10.768Z,8.90
2023-12-27T05:36:39.346Z,8.60
2023-12-27T05:39:07.941Z,9.00
2023-12-27T05:41:36.794Z,8.70
2023-12-27T05:44:05.258Z,9.00
2023-12-27T05:46:36.838Z,7.50
2023-12-27T05:49:05.430Z,9.40
2023-12-27T05:51:34.821Z,9.50
2023-12-27T05:54:04.525Z,9.00
2023-12-27T05:56:33.708Z,7.60
2023-12-27T05:59:02.284Z,8.50
2023-12-27T06:01:30.808Z,9.10
2023-12-27T06:04:00.756Z,8.50
2023-12-27T06:08:57.678Z,7.70
2023-12-27T06:11:26.341Z,8.40
2023-12-27T06:13:54.817Z,8.60
2023-12-27T06:16:23.093Z,8.80
2023-12-27T06:18:56.055Z,13.40
2023-12-27T06:21:24.798Z,12.10
2023-12-27T06:23:53.179Z,14.50
2023-12-27T06:26:22.039Z,12.80
2023-12-27T06:28:50.423Z,11.80
2023-12-27T06:31:19.041Z,16.80
2023-12-27T06:33:47.618Z,9.30
2023-12-27T06:36:16.284Z,9.30
2023-12-27T06:38:47.733Z,8.20
2023-12-27T06:41:17.837Z,7.70
2023-12-27T06:43:46.620Z,7.30
2023-12-27T06:46:14.899Z,8.20
2023-12-27T06:48:43.458Z,7.50
2023-12-27T06:51:15.093Z,7.90
2023-12-27T06:53:43.518Z,7.10
2023-12-27T06:56:12.317Z,7.30
2023-12-27T06:58:40.531Z,6.70
2023-12-27T07:01:11.320Z,7.40
2023-12-27T07:03:39.997Z,7.40
2023-12-27T07:06:09.295Z,7.90
2023-12-27T07:08:37.890Z,7.60
2023-12-27T07:11:06.386Z,6.90
2023-12-27T07:13:34.966Z,7.60
2023-12-27T07:16:03.815Z,7.20
2023-12-27T07:18:32.409Z,6.70
2023-12-27T07:21:01.061Z,6.80
2023-12-27T07:23:29.494Z,7.40
2023-12-27T07:25:58.286Z,8.60
2023-12-27T07:28:27.551Z,12.60
2023-12-27T07:30:56.044Z,6.80
2023-12-27T07:33:24.788Z,7.10
2023-12-27T07:35:53.767Z,7.10
2023-12-27T07:38:22.447Z,6.90
2023-12-27T07:40:50.805Z,6.70
2023-12-27T07:43:22.058Z,7.70
2023-12-27T07:45:50.430Z,6.80
2023-12-27T07:48:19.359Z,6.20
2023-12-27T07:50:47.917Z,6.10
2023-12-27T07:53:16.389Z,6.00
2023-12-27T07:55:44.786Z,6.20
2023-12-27T07:58:13.244Z,7.40
2023-12-27T08:00:42.083Z,6.20
2023-12-27T08:03:10.732Z,6.10
2023-12-27T08:05:39.944Z,6.90
2023-12-27T08:08:08.495Z,6.30
2023-12-27T08:10:37.631Z,6.60
2023-12-27T08:13:09.470Z,6.40
2023-12-27T08:15:38.183Z,5.80
2023-12-27T08:18:06.858Z,6.00
2023-12-27T08:20:35.636Z,6.40
2023-12-27T08:23:04.569Z,7.10
2023-12-27T08:25:32.994Z,5.40
2023-12-27T08:28:02.493Z,6.40
2023-12-27T08:30:31.040Z,5.80
2023-12-27T08:33:01.627Z,7.20
2023-12-27T08:35:30.140Z,6.00
2023-12-27T08:37:58.819Z,6.00
2023-12-27T08:40:27.360Z,6.60
2023-12-27T08:42:56.604Z,6.00
2023-12-27T08:45:25.303Z,5.80
2023-12-27T08:47:53.669Z,5.90
2023-12-27T08:50:22.418Z,5.50
2023-12-27T08:52:50.793Z,6.10
2023-12-27T08:55:19.168Z,5.80
2023-12-27T08:57:47.711Z,6.00
2023-12-27T09:00:16.787Z,5.50
2023-12-27T09:02:46.277Z,4.80
2023-12-27T09:05:14.622Z,5.30
2023-12-27T09:07:43.106Z,4.70
2023-12-27T09:10:12.248Z,4.90
2023-12-27T09:12:40.864Z,5.30
2023-12-27T09:15:10.106Z,5.20
2023-12-27T09:20:09.714Z,5.00
2023-12-27T09:22:38.273Z,5.30
2023-12-27T09:25:07.313Z,5.50
2023-12-27T09:30:05.307Z,5.70
2023-12-27T09:32:33.902Z,5.40
2023-12-27T09:35:04.215Z,4.70
2023-12-27T09:37:32.992Z,4.60
2023-12-27T09:40:01.682Z,4.60
2023-12-27T09:42:34.420Z,4.70
2023-12-27T09:45:09.803Z,5.00
2023-12-27T09:47:41.292Z,4.90
2023-12-27T09:50:10.458Z,5.50
2023-12-27T09:52:41.156Z,5.70
2023-12-27T09:55:10.001Z,5.30
2023-12-27T09:57:39.099Z,4.80
2023-12-27T10:00:11.141Z,5.00
2023-12-27T10:02:43.522Z,4.60
2023-12-27T10:05:27.989Z,4.40
2023-12-27T10:07:58.277Z,5.30
2023-12-27T10:10:28.757Z,4.10
2023-12-27T10:13:04.029Z,4.60
2023-12-27T10:15:32.781Z,5.60
2023-12-27T10:18:01.544Z,5.20
2023-12-27T10:23:12.021Z,5.20
2023-12-27T10:25:41.746Z,4.70
2023-12-27T10:28:10.610Z,5.00
2023-12-27T10:33:08.013Z,4.60
2023-12-27T10:38:08.597Z,4.40
2023-12-27T10:40:41.091Z,4.80
2023-12-27T10:43:10.290Z,4.90
2023-12-27T10:45:39.467Z,4.40
2023-12-27T10:48:11.417Z,4.80
2023-12-27T10:50:40.769Z,4.60
2023-12-27T10:53:10.679Z,4.70
2023-12-27T10:55:39.796Z,4.50
2023-12-27T10:58:17.389Z,5.20
2023-12-27T11:00:48.026Z,6.50
2023-12-27T11:03:19.978Z,4.90
2023-12-27T11:05:49.691Z,5.30
2023-12-27T11:08:21.855Z,4.40
2023-12-27T11:10:50.991Z,4.30
2023-12-27T11:13:25.639Z,9.90
2023-12-27T11:15:57.338Z,4.40
2023-12-27T11:18:26.828Z,8.10
2023-12-27T11:20:58.393Z,5.00
2023-12-27T11:23:27.367Z,4.30
2023-12-27T11:25:57.745Z,5.00
2023-12-27T11:28:26.663Z,5.40
2023-12-27T11:30:56.295Z,4.60
2023-12-27T11:33:28.369Z,5.00
2023-12-27T11:35:59.381Z,5.20
2023-12-27T11:38:27.982Z,6.20
2023-12-27T11:41:02.023Z,8.30
2023-12-27T11:43:49.329Z,4.40
2023-12-27T11:46:26.870Z,4.20
2023-12-27T11:48:56.045Z,5.80
2023-12-27T11:51:35.819Z,33.20
2023-12-27T11:54:07.675Z,13.40
2023-12-27T11:56:40.159Z,4.70
2023-12-27T11:59:12.693Z,6.90
2023-12-27T12:01:43.017Z,6.60
2023-12-27T12:04:38.952Z,6.90
2023-12-27T12:07:19.585Z,7.20
2023-12-27T12:09:48.405Z,8.70
2023-12-27T12:12:16.847Z,10.60
2023-12-27T12:14:46.275Z,12.10
2023-12-27T12:17:15.348Z,5.50
2023-12-27T12:19:43.932Z,13.10
2023-12-27T12:22:15.322Z,10.70
2023-12-27T12:24:47.799Z,18.70
2023-12-27T12:27:17.994Z,13.80
2023-12-27T12:29:46.599Z,15.50
2023-12-27T12:32:16.459Z,9.90
2023-12-27T12:34:45.508Z,6.70
2023-12-27T12:37:16.101Z,10.70
2023-12-27T12:39:48.055Z,16.10
2023-12-27T12:42:16.762Z,7.70
2023-12-27T12:44:46.261Z,5.80
2023-12-27T12:47:16.300Z,7.10
2023-12-27T12:49:44.983Z,6.00
2023-12-27T12:52:13.359Z,7.00
2023-12-27T12:54:42.165Z,6.20
2023-12-27T12:57:10.905Z,5.40
2023-12-27T12:59:42.784Z,5.50
2023-12-27T13:02:11.880Z,7.40
2023-12-27T13:04:40.623Z,9.60
2023-12-27T13:07:09.237Z,8.30
2023-12-27T13:10:01.819Z,9.10
2023-12-27T13:12:31.723Z,10.70
2023-12-27T13:15:00.251Z,10.30
2023-12-27T13:17:29.020Z,13.40
2023-12-27T13:19:57.741Z,8.60
2023-12-27T13:22:26.196Z,7.50
2023-12-27T13:24:55.039Z,11.70
2023-12-27T13:27:23.510Z,11.80
2023-12-27T13:29:51.998Z,5.40
2023-12-27T13:32:21.004Z,4.70
2023-12-27T13:34:49.413Z,5.10
2023-12-27T13:37:20.489Z,4.50
2023-12-27T13:39:49.571Z,4.70
2023-12-27T13:44:46.263Z,4.50
2023-12-27T13:47:14.631Z,4.40
2023-12-27T13:49:44.841Z,4.50
2023-12-27T13:52:13.734Z,4.50
2023-12-27T13:54:42.356Z,6.80
2023-12-27T13:57:10.706Z,17.60
2023-12-27T13:59:41.044Z,8.90
2023-12-27T14:02:09.603Z,6.30
2023-12-27T14:04:38.334Z,5.90
2023-12-27T14:07:06.717Z,6.30
2023-12-27T14:09:35.930Z,6.20
2023-12-27T14:14:33.141Z,7.50
2023-12-27T14:17:01.544Z,7.30
2023-12-27T14:19:33.076Z,9.20
2023-12-27T14:22:01.868Z,16.10
2023-12-27T14:24:32.957Z,20.20
2023-12-27T14:27:01.315Z,8.80
2023-12-27T14:29:30.597Z,13.00
2023-12-27T14:31:59.169Z,35.20
2023-12-27T14:34:27.954Z,34.30
2023-12-27T14:36:56.446Z,29.90
2023-12-27T14:39:27.386Z,36.90
2023-12-27T14:41:56.169Z,34.10
2023-12-27T14:44:24.651Z,16.30
2023-12-27T14:46:54.931Z,9.60
2023-12-27T14:49:23.385Z,6.40
2023-12-27T14:51:51.948Z,5.50
2023-12-27T14:54:24.068Z,5.80
2023-12-27T14:56:54.224Z,14.40
2023-12-27T14:59:24.104Z,16.50
2023-12-27T15:01:54.333Z,12.90
2023-12-27T15:04:24.572Z,8.90
2023-12-27T15:06:53.199Z,9.40
2023-12-27T15:09:24.220Z,12.50
2023-12-27T15:11:53.001Z,13.30
2023-12-27T15:14:22.115Z,16.60
2023-12-27T15:16:51.943Z,25.30
2023-12-27T15:21:49.182Z,16.80
2023-12-27T15:24:17.787Z,15.50
2023-12-27T15:26:46.246Z,18.20
2023-12-27T15:29:15.549Z,22.50
2023-12-27T15:31:45.413Z,15.30
2023-12-27T15:36:43.014Z,20.40
2023-12-27T15:39:11.484Z,19.10
2023-12-27T15:41:39.902Z,14.90
2023-12-27T15:44:08.903Z,12.00
2023-12-27T15:46:37.487Z,11.80
2023-12-27T15:49:07.706Z,11.20
2023-12-27T15:51:37.407Z,11.40
2023-12-27T15:54:07.855Z,14.60
2023-12-27T15:56:46.416Z,12.50
2023-12-27T15:59:15.169Z,12.60
2023-12-27T16:01:46.553Z,14.30
2023-12-27T16:04:19.402Z,11.00
2023-12-27T16:06:48.856Z,11.80
2023-12-27T16:09:18.225Z,11.20
2023-12-27T16:11:46.757Z,14.20
2023-12-27T16:14:15.133Z,22.10
2023-12-27T16:16:44.274Z,20.50
2023-12-27T16:19:14.035Z,24.50
2023-12-27T16:21:43.820Z,22.40
2023-12-27T16:24:12.580Z,17.40
2023-12-27T16:26:40.940Z,18.00
2023-12-27T16:29:09.307Z,23.40
2023-12-27T16:31:37.995Z,23.40
2023-12-27T16:34:06.877Z,20.50
2023-12-27T16:36:35.395Z,18.80
2023-12-27T16:39:03.911Z,22.70
2023-12-27T16:41:32.529Z,20.60
2023-12-27T16:44:01.160Z,22.40
2023-12-27T16:46:29.696Z,20.90
2023-12-27T16:49:00.145Z,22.40
2023-12-27T16:51:30.328Z,25.50
2023-12-27T16:53:59.769Z,27.70
2023-12-27T16:56:29.270Z,25.50
2023-12-27T16:58:57.708Z,23.30
2023-12-27T17:01:26.136Z,22.00
2023-12-27T17:03:54.640Z,21.20
2023-12-27T17:06:24.446Z,20.60
2023-12-27T17:08:52.985Z,24.30
2023-12-27T17:11:21.375Z,22.30
2023-12-27T17:13:50.779Z,20.00
2023-12-27T17:16:19.375Z,26.60
2023-12-27T17:18:47.911Z,24.80
2023-12-27T17:21:19.059Z,25.30
2023-12-27T17:23:49.009Z,21.50
2023-12-27T17:26:17.456Z,17.00
2023-12-27T17:28:45.976Z,21.90
2023-12-27T17:31:14.439Z,15.90
2023-12-27T17:33:43.409Z,13.80
2023-12-27T17:36:12.145Z,19.10
2023-12-27T17:38:40.622Z,20.90
2023-12-27T17:41:09.390Z,15.50
2023-12-27T17:43:41.514Z,24.70
2023-12-27T17:46:13.532Z,20.20
2023-12-27T17:48:45.735Z,13.40
2023-12-27T17:51:14.303Z,11.50
2023-12-27T17:53:43.389Z,10.60
2023-12-27T17:56:11.959Z,11.50
2023-12-27T17:58:40.773Z,11.00
2023-12-27T18:01:09.519Z,11.30
2023-12-27T18:03:38.253Z,13.30
2023-12-27T18:06:08.356Z,18.30
2023-12-27T18:08:36.810Z,36.70
2023-12-27T18:11:05.355Z,20.60
2023-12-27T18:13:35.142Z,22.00
2023-12-27T18:16:05.738Z,27.60
2023-12-27T18:18:34.490Z,64.00
2023-12-27T18:21:05.591Z,39.20
2023-12-27T18:23:37.423Z,74.80
2023-12-27T18:26:05.802Z,29.30
2023-12-27T18:28:34.254Z,19.80
2023-12-27T18:31:02.633Z,17.70
2023-12-27T18:33:31.993Z,14.00
2023-12-27T18:36:01.152Z,16.10
2023-12-27T18:38:29.647Z,20.80
2023-12-27T18:40:58.118Z,34.60
2023-12-27T18:43:26.428Z,37.40
2023-12-27T18:45:57.167Z,89.00
2023-12-27T18:48:25.751Z,64.50
2023-12-27T18:50:54.330Z,50.50
2023-12-27T18:53:22.785Z,41.40
2023-12-27T18:55:51.153Z,44.40
2023-12-27T18:58:20.152Z,43.10
2023-12-27T19:00:49.133Z,34.70
2023-12-27T19:03:18.136Z,27.00
2023-12-27T19:05:48.215Z,19.60
2023-12-27T19:08:16.742Z,9.80
2023-12-27T19:10:45.737Z,9.10
2023-12-27T19:13:14.123Z,9.60
2023-12-27T19:15:42.495Z,9.00
2023-12-27T19:18:12.723Z,8.40
2023-12-27T19:20:41.507Z,8.90
2023-12-27T19:23:10.066Z,8.00
2023-12-27T19:25:39.394Z,15.30
2023-12-27T19:28:07.866Z,14.70
2023-12-27T19:30:36.459Z,17.00
2023-12-27T19:33:05.847Z,17.30
2023-12-27T19:35:34.538Z,13.80
2023-12-27T19:38:03.122Z,13.50
2023-12-27T19:40:31.604Z,13.60
2023-12-27T19:43:00.568Z,15.00
2023-12-27T19:45:29.626Z,15.30
2023-12-27T19:47:58.595Z,13.40
2023-12-27T19:50:27.368Z,13.50
2023-12-27T19:52:55.645Z,12.50
2023-12-27T19:55:24.234Z,13.50
2023-12-27T19:57:52.656Z,15.50
2023-12-27T20:00:21.300Z,15.10
2023-12-27T20:02:50.092Z,15.30
2023-12-27T20:05:18.640Z,15.90
2023-12-27T20:07:46.988Z,15.40
2023-12-27T20:10:15.535Z,19.10
2023-12-27T20:12:44.083Z,20.20
2023-12-27T20:15:12.857Z,15.00
2023-12-27T20:17:41.386Z,12.00
2023-12-27T20:20:10.384Z,12.00
2023-12-27T20:22:38.871Z,12.40
2023-12-27T20:25:08.081Z,12.80
2023-12-27T20:27:36.876Z,12.80
2023-12-27T20:30:06.622Z,11.40
2023-12-27T20:32:35.782Z,14.00
2023-12-27T20:35:05.369Z,14.60
2023-12-27T20:37:33.900Z,16.00
2023-12-27T20:40:02.547Z,13.60
2023-12-27T20:42:31.173Z,15.20
2023-12-27T20:44:59.906Z,15.30
2023-12-27T20:47:28.412Z,9.50
2023-12-27T20:49:57.138Z,8.10
2023-12-27T20:52:26.109Z,8.50
2023-12-27T20:54:55.276Z,7.00
2023-12-27T20:57:24.413Z,8.10
2023-12-27T20:59:52.972Z,7.30
2023-12-27T21:02:21.424Z,8.80
2023-12-27T21:04:50.000Z,9.70
2023-12-27T21:07:19.225Z,9.70
2023-12-27T21:09:47.861Z,8.20
2023-12-27T21:12:16.802Z,10.80
2023-12-27T21:14:46.383Z,15.10
2023-12-27T21:17:15.499Z,18.80
2023-12-27T21:19:44.713Z,18.60
2023-12-27T21:22:13.502Z,17.10
2023-12-27T21:24:42.082Z,15.60
2023-12-27T21:27:10.761Z,15.30
2023-12-27T21:29:39.448Z,15.60
2023-12-27T21:32:07.914Z,14.90
2023-12-27T21:34:36.334Z,17.10
2023-12-27T21:37:05.564Z,23.70
2023-12-27T21:39:34.654Z,27.50
2023-12-27T21:42:04.405Z,29.90
2023-12-27T21:44:34.215Z,16.50
2023-12-27T21:47:02.988Z,17.80
2023-12-27T21:49:31.519Z,17.70
2023-12-27T21:52:00.020Z,16.10
2023-12-27T21:54:28.677Z,21.80
2023-12-27T21:56:57.356Z,19.80
2023-12-27T21:59:25.799Z,17.80
2023-12-27T22:01:54.366Z,17.80
2023-12-27T22:04:22.737Z,19.60
2023-12-27T22:06:51.345Z,16.50
2023-12-27T22:09:20.074Z,12.40
2023-12-27T22:11:48.634Z,10.40
2023-12-27T22:14:18.437Z,8.20
2023-12-27T22:16:50.126Z,6.70
2023-12-27T22:19:18.936Z,10.20
2023-12-27T22:21:50.533Z,14.20
2023-12-27T22:24:19.045Z,24.60
2023-12-27T22:26:47.521Z,18.20
2023-12-27T22:29:17.124Z,13.60
2023-12-27T22:31:45.687Z,14.00
2023-12-27T22:34:15.813Z,13.30
2023-12-27T22:36:44.470Z,12.90
2023-12-27T22:39:13.129Z,9.00
2023-12-27T22:41:41.575Z,12.10
2023-12-27T22:44:10.142Z,12.00
2023-12-27T22:46:38.758Z,11.40
2023-12-27T22:49:08.373Z,11.60
2023-12-27T22:51:37.654Z,13.90
2023-12-27T22:54:06.636Z,18.40
2023-12-27T22:56:35.221Z,17.10
2023-12-27T22:59:03.606Z,16.60
2023-12-27T23:01:32.330Z,15.60
2023-12-27T23:04:00.910Z,17.60
2023-12-27T23:06:29.433Z,12.00
2023-12-27T23:09:00.137Z,12.10
2023-12-27T23:11:28.462Z,12.20
2023-12-27T23:13:56.916Z,10.70
2023-12-27T23:16:25.834Z,10.30
2023-12-27T23:18:54.542Z,10.10
2023-12-27T23:21:23.102Z,28.20
2023-12-27T23:23:51.688Z,19.30
2023-12-27T23:26:20.064Z,20.50
2023-12-27T23:28:49.875Z,13.40
2023-12-27T23:31:18.359Z,14.50
2023-12-27T23:33:47.367Z,10.70
2023-12-27T23:36:15.852Z,11.00
2023-12-27T23:38:44.137Z,11.90
2023-12-27T23:41:12.580Z,8.70
2023-12-27T23:43:42.956Z,10.40
2023-12-27T23:46:11.389Z,9.90
2023-12-27T23:48:39.998Z,34.70
2023-12-27T23:51:08.870Z,16.50
2023-12-27T23:53:37.566Z,10.40
2023-12-27T23:56:06.252Z,9.00
2023-12-27T23:58:34.713Z,8.00
